Iris Halo — 3ECA8 — position and weather

sailwx.info

Track history (hours):
 
Tides and Currents Weather Stations Pressure Air Temp Water Temp Dewpoint Dewpoint Depression Visibility Wind Speed Wind Dir Waves Ship Positions

Iris Halo

Last reported at 2018-Feb-11 00:17 UTC. Time now 2018-Feb-23 04:41 UTC.
Position N 40°44' E 028°42'.
Warning: this ship's position is 12 days out of date.

Length 190 m; draft 6 m.

Type: Cargo ship. MMSI: 371281000.

Date/timePositionNaut miles runAvg speedWind from/ knotsBaromVisibWave heightAir tempDewpointWater temp
2018-Feb-11 00:17N 40°44' E 028°42'414.3
2018-Feb-11 00:00N 40°43' E 028°47'714.1
2018-Feb-10 23:30N 40°44' E 028°56'714.1
2018-Feb-10 22:59N 40°45' E 029°06'714.0
2018-Feb-10 22:30N 40°44' E 029°14'612.0
2018-Feb-10 22:00N 40°44' E 029°23'611.5
2018-Feb-10 21:28N 40°45' E 029°30'4 8.7
2018-Feb-10 21:00N 40°46' E 029°36'1 0.5
2018-Feb-10 19:37N 40°47' E 029°36'  
2018-Feb-05 21:44N 40°47' E 029°36'0 0.6
2018-Feb-05 21:30N 40°47' E 029°36'2 3.1
2018-Feb-05 21:00N 40°46' E 029°35'5 8.6
2018-Feb-05 20:26N 40°44' E 029°28'4 9.5
2018-Feb-05 20:00N 40°43' E 029°23'9 9.0
2018-Feb-05 19:00N 40°43' E 029°11'510.5
2018-Feb-05 18:30N 40°44' E 029°04'612.4
2018-Feb-05 18:00N 40°43' E 028°56'27511.0
2018-Feb-04 17:07N 37°40' E 024°32'42812.8
2018-Feb-03 07:34N 36°26' E 015°44'1513.7
2018-Feb-03 06:30N 36°26' E 015°26'713.7
2018-Feb-03 06:00N 36°27' E 015°17'714.2
2018-Feb-03 05:30N 36°27' E 015°08'814.7
2018-Feb-03 04:59N 36°27' E 014°59'1414.4
2018-Feb-03 04:00N 36°27' E 014°41'713.8
2018-Feb-03 03:30N 36°28' E 014°33'2114.2
2018-Feb-03 02:00N 36°34' E 014°07'714.0
2018-Feb-03 01:30N 36°36' E 013°59'713.9
2018-Feb-03 01:00N 36°39' E 013°51'713.8
2018-Feb-03 00:30N 36°41' E 013°43'714.1
2018-Feb-03 00:00N 36°43' E 013°35'713.9
2018-Feb-02 23:30N 36°45' E 013°26'713.7
2018-Feb-02 23:00N 36°47' E 013°18'713.3
2018-Feb-02 22:31N 36°49' E 013°10'713.4
2018-Feb-02 22:00N 36°51' E 013°02'713.6
2018-Feb-02 21:30N 36°54' E 012°54'713.8
2018-Feb-02 21:00N 36°56' E 012°46'714.1
2018-Feb-02 20:31N 36°58' E 012°38'714.3
2018-Feb-02 20:00N 37°00' E 012°29'1313.3
2018-Feb-02 19:00N 37°04' E 012°13'1413.0
2018-Feb-02 17:57N 37°08' E 011°57'613.6
2018-Feb-02 17:30N 37°10' E 011°49'  
Track history (hours):
 
Tides and Currents Weather Stations Pressure Air Temp Water Temp Dewpoint Dewpoint Depression Visibility Wind Speed Wind Dir Waves Ship Positions

Iris Halo

Last reported at 2018-Feb-11 00:17 UTC. Time now 2018-Feb-23 04:41 UTC.
Position N 40°44' E 028°42'.
Warning: this ship's position is 12 days out of date.

Length 190 m; draft 6 m.

Type: Cargo ship. MMSI: 371281000.

Date/timePositionNaut miles runAvg speedWind from/ knotsBaromVisibWave heightAir tempDewpointWater temp
2018-Feb-11 00:17N 40°44' E 028°42'414.3
2018-Feb-11 00:00N 40°43' E 028°47'714.1
2018-Feb-10 23:30N 40°44' E 028°56'714.1
2018-Feb-10 22:59N 40°45' E 029°06'714.0
2018-Feb-10 22:30N 40°44' E 029°14'612.0
2018-Feb-10 22:00N 40°44' E 029°23'611.5
2018-Feb-10 21:28N 40°45' E 029°30'4 8.7
2018-Feb-10 21:00N 40°46' E 029°36'1 0.5
2018-Feb-10 19:37N 40°47' E 029°36'  
2018-Feb-05 21:44N 40°47' E 029°36'0 0.6
2018-Feb-05 21:30N 40°47' E 029°36'2 3.1
2018-Feb-05 21:00N 40°46' E 029°35'5 8.6
2018-Feb-05 20:26N 40°44' E 029°28'4 9.5
2018-Feb-05 20:00N 40°43' E 029°23'9 9.0
2018-Feb-05 19:00N 40°43' E 029°11'510.5
2018-Feb-05 18:30N 40°44' E 029°04'612.4
2018-Feb-05 18:00N 40°43' E 028°56'27511.0
2018-Feb-04 17:07N 37°40' E 024°32'42812.8
2018-Feb-03 07:34N 36°26' E 015°44'1513.7
2018-Feb-03 06:30N 36°26' E 015°26'713.7
2018-Feb-03 06:00N 36°27' E 015°17'714.2
2018-Feb-03 05:30N 36°27' E 015°08'814.7
2018-Feb-03 04:59N 36°27' E 014°59'1414.4
2018-Feb-03 04:00N 36°27' E 014°41'713.8
2018-Feb-03 03:30N 36°28' E 014°33'2114.2
2018-Feb-03 02:00N 36°34' E 014°07'714.0
2018-Feb-03 01:30N 36°36' E 013°59'713.9
2018-Feb-03 01:00N 36°39' E 013°51'713.8
2018-Feb-03 00:30N 36°41' E 013°43'714.1
2018-Feb-03 00:00N 36°43' E 013°35'713.9
2018-Feb-02 23:30N 36°45' E 013°26'713.7
2018-Feb-02 23:00N 36°47' E 013°18'713.3
2018-Feb-02 22:31N 36°49' E 013°10'713.4
2018-Feb-02 22:00N 36°51' E 013°02'713.6
2018-Feb-02 21:30N 36°54' E 012°54'713.8
2018-Feb-02 21:00N 36°56' E 012°46'714.1
2018-Feb-02 20:31N 36°58' E 012°38'714.3
2018-Feb-02 20:00N 37°00' E 012°29'1313.3
2018-Feb-02 19:00N 37°04' E 012°13'1413.0
2018-Feb-02 17:57N 37°08' E 011°57'613.6
2018-Feb-02 17:30N 37°10' E 011°49'  

Dump ship's entire track history